createdAt,value
2018-12-18T00:02:22.987Z,100.00
2018-12-18T00:04:51.498Z,100.00
2018-12-18T00:07:20.053Z,100.00
2018-12-18T00:09:48.694Z,100.00
2018-12-18T00:12:17.227Z,100.00
2018-12-18T00:14:45.755Z,100.00
2018-12-18T00:17:15.213Z,100.00
2018-12-18T00:19:43.740Z,100.00
2018-12-18T00:22:12.275Z,100.00
2018-12-18T00:24:40.821Z,100.00
2018-12-18T00:27:09.355Z,100.00
2018-12-18T00:29:38.914Z,100.00
2018-12-18T00:32:07.452Z,100.00
2018-12-18T00:34:35.975Z,100.00
2018-12-18T00:37:04.522Z,100.00
2018-12-18T00:39:33.050Z,100.00
2018-12-18T00:42:01.554Z,100.00
2018-12-18T00:44:31.058Z,100.00
2018-12-18T00:46:59.574Z,100.00
2018-12-18T00:49:28.109Z,100.00
2018-12-18T00:51:56.638Z,100.00
2018-12-18T00:54:27.149Z,100.00
2018-12-18T00:56:55.682Z,100.00
2018-12-18T00:59:24.217Z,100.00
2018-12-18T01:01:59.586Z,100.00
2018-12-18T01:04:28.130Z,100.00
2018-12-18T01:06:56.670Z,100.00
2018-12-18T01:09:27.164Z,100.00
2018-12-18T01:11:55.677Z,100.00
2018-12-18T01:14:38.416Z,100.00
2018-12-18T01:17:07.002Z,100.00
2018-12-18T01:19:35.538Z,100.00
2018-12-18T01:22:04.043Z,100.00
2018-12-18T01:24:32.562Z,100.00
2018-12-18T01:27:01.090Z,100.00
2018-12-18T01:29:29.621Z,100.00
2018-12-18T01:31:58.158Z,100.00
2018-12-18T01:34:26.692Z,100.00
2018-12-18T01:36:55.214Z,100.00
2018-12-18T01:39:23.729Z,100.00
2018-12-18T01:41:52.256Z,100.00
2018-12-18T01:44:20.862Z,100.00
2018-12-18T01:46:49.399Z,100.00
2018-12-18T01:49:18.809Z,100.00
2018-12-18T01:51:47.367Z,100.00
2018-12-18T01:54:15.886Z,100.00
2018-12-18T01:56:44.388Z,100.00
2018-12-18T01:59:12.895Z,100.00
2018-12-18T02:01:41.405Z,100.00
2018-12-18T02:04:09.929Z,100.00
2018-12-18T02:06:38.431Z,100.00
2018-12-18T02:09:06.954Z,100.00
2018-12-18T02:11:35.482Z,100.00
2018-12-18T02:14:04.023Z,100.00
2018-12-18T02:16:32.547Z,100.00
2018-12-18T02:19:01.087Z,100.00
2018-12-18T02:21:29.606Z,100.00
2018-12-18T02:23:58.133Z,100.00
2018-12-18T02:26:27.598Z,100.00
2018-12-18T02:28:56.122Z,100.00
2018-12-18T02:31:24.637Z,100.00
2018-12-18T02:33:53.215Z,100.00
2018-12-18T02:36:21.724Z,100.00
2018-12-18T02:38:50.253Z,100.00
2018-12-18T02:41:18.909Z,100.00
2018-12-18T02:43:47.466Z,100.00
2018-12-18T02:46:15.978Z,100.00
2018-12-18T02:48:44.485Z,100.00
2018-12-18T02:51:13.034Z,100.00
2018-12-18T02:53:42.498Z,100.00
2018-12-18T02:56:12.011Z,100.00
2018-12-18T02:58:40.523Z,100.00
2018-12-18T03:01:09.075Z,100.00
2018-12-18T03:03:38.584Z,100.00
2018-12-18T03:06:07.154Z,100.00
2018-12-18T03:08:36.685Z,100.00
2018-12-18T03:14:24.252Z,100.00
2018-12-18T03:16:53.929Z,100.00
2018-12-18T03:19:22.986Z,100.00
2018-12-18T03:21:52.023Z,100.00
2018-12-18T03:24:21.066Z,100.00
2018-12-18T03:26:50.128Z,100.00
2018-12-18T03:29:19.189Z,100.00
2018-12-18T03:31:48.273Z,100.00
2018-12-18T03:34:17.437Z,100.00
2018-12-18T03:36:46.468Z,100.00
2018-12-18T03:39:15.553Z,100.00
2018-12-18T03:41:44.595Z,100.00
2018-12-18T03:44:13.651Z,100.00
2018-12-18T03:46:42.717Z,100.00
2018-12-18T03:49:11.750Z,100.00
2018-12-18T03:51:40.812Z,100.00
2018-12-18T03:54:09.840Z,100.00
2018-12-18T03:56:38.884Z,100.00
2018-12-18T03:59:07.937Z,100.00
2018-12-18T04:01:36.987Z,100.00
2018-12-18T04:04:06.067Z,100.00
2018-12-18T04:06:35.104Z,100.00
2018-12-18T04:09:04.162Z,100.00
2018-12-18T04:11:33.206Z,100.00
2018-12-18T04:14:02.248Z,100.00
2018-12-18T04:16:31.288Z,100.00
2018-12-18T04:19:00.405Z,100.00
2018-12-18T04:21:29.439Z,100.00
2018-12-18T04:23:58.491Z,100.00
2018-12-18T04:26:27.545Z,100.00
2018-12-18T04:28:56.571Z,100.00
2018-12-18T04:31:25.621Z,100.00
2018-12-18T04:33:54.667Z,100.00
2018-12-18T04:36:23.733Z,100.00
2018-12-18T04:38:52.834Z,100.00
2018-12-18T04:41:22.937Z,100.00
2018-12-18T04:43:51.971Z,100.00
2018-12-18T04:46:21.076Z,100.00
2018-12-18T04:48:50.112Z,100.00
2018-12-18T04:51:20.015Z,100.00
2018-12-18T04:53:49.047Z,100.00
2018-12-18T04:56:18.094Z,100.00
2018-12-18T04:58:47.141Z,100.00
2018-12-18T05:01:18.138Z,100.00
2018-12-18T05:03:47.197Z,100.00
2018-12-18T05:06:16.255Z,100.00
2018-12-18T05:08:45.314Z,100.00
2018-12-18T05:11:14.341Z,100.00
2018-12-18T05:13:43.371Z,100.00
2018-12-18T05:16:12.438Z,100.00
2018-12-18T05:18:41.469Z,100.00
2018-12-18T05:21:10.518Z,100.00
2018-12-18T05:23:39.550Z,100.00
2018-12-18T05:26:08.595Z,100.00
2018-12-18T05:28:37.636Z,100.00
2018-12-18T05:31:13.022Z,100.00
2018-12-18T05:33:42.060Z,100.00
2018-12-18T05:36:11.114Z,100.00
2018-12-18T05:38:40.165Z,100.00
2018-12-18T05:41:09.258Z,100.00
2018-12-18T05:43:38.270Z,100.00
2018-12-18T05:46:07.327Z,100.00
2018-12-18T05:48:36.401Z,100.00
2018-12-18T05:51:05.475Z,100.00
2018-12-18T05:56:11.945Z,100.00
2018-12-18T05:58:41.029Z,100.00
2018-12-18T06:01:11.075Z,100.00
2018-12-18T06:03:40.139Z,100.00
2018-12-18T06:06:10.216Z,100.00
2018-12-18T06:08:39.293Z,100.00
2018-12-18T06:11:08.376Z,100.00
2018-12-18T06:13:37.457Z,100.00
2018-12-18T06:16:06.524Z,100.00
2018-12-18T06:18:35.610Z,100.00
2018-12-18T06:21:05.608Z,100.00
2018-12-18T06:23:35.023Z,100.00
2018-12-18T06:26:04.549Z,100.00
2018-12-18T06:28:33.833Z,100.00
2018-12-18T06:31:02.886Z,100.00
2018-12-18T06:33:31.943Z,100.00
2018-12-18T06:36:01.032Z,100.00
2018-12-18T06:38:30.163Z,100.00
2018-12-18T06:40:59.211Z,100.00
2018-12-18T06:46:04.083Z,100.00
2018-12-18T06:48:33.199Z,100.00
2018-12-18T06:51:02.251Z,100.00
2018-12-18T06:53:31.361Z,100.00
2018-12-18T06:56:00.450Z,100.00
2018-12-18T06:58:29.534Z,100.00
2018-12-18T07:00:58.599Z,100.00
2018-12-18T07:03:27.655Z,100.00
2018-12-18T07:05:56.717Z,100.00
2018-12-18T07:11:04.585Z,100.00
2018-12-18T07:13:33.654Z,100.00
2018-12-18T07:16:02.830Z,100.00
2018-12-18T07:18:32.859Z,100.00
2018-12-18T07:21:01.887Z,100.00
2018-12-18T07:23:30.940Z,100.00
2018-12-18T07:26:11.249Z,100.00
2018-12-18T07:28:40.290Z,100.00
2018-12-18T07:31:09.394Z,100.00
2018-12-18T07:33:38.454Z,100.00
2018-12-18T07:38:58.497Z,100.00
2018-12-18T07:41:28.496Z,100.00
2018-12-18T07:44:10.496Z,100.00
2018-12-18T07:46:43.289Z,100.00
2018-12-18T07:51:02.479Z,100.00
2018-12-18T07:53:31.540Z,100.00
2018-12-18T07:56:00.600Z,100.00
2018-12-18T07:58:29.666Z,100.00
2018-12-18T08:00:58.745Z,100.00
2018-12-18T08:03:27.807Z,100.00
2018-12-18T08:05:57.004Z,100.00
2018-12-18T08:08:26.068Z,100.00
2018-12-18T08:10:55.138Z,100.00
2018-12-18T08:13:24.179Z,100.00
2018-12-18T08:15:53.230Z,100.00
2018-12-18T08:18:23.179Z,100.00
2018-12-18T08:20:52.207Z,100.00
2018-12-18T08:23:21.251Z,100.00
2018-12-18T08:25:50.317Z,100.00
2018-12-18T08:28:21.326Z,100.00
2018-12-18T08:30:50.375Z,100.00
2018-12-18T08:33:19.427Z,100.00
2018-12-18T08:35:48.479Z,100.00
2018-12-18T08:38:17.555Z,100.00
2018-12-18T08:40:46.763Z,100.00
2018-12-18T08:43:15.799Z,100.00
2018-12-18T08:45:44.827Z,100.00
2018-12-18T08:48:14.863Z,95.26
2018-12-18T08:50:43.899Z,88.88
2018-12-18T08:53:12.935Z,81.30
2018-12-18T08:55:48.814Z,72.90
2018-12-18T08:58:17.855Z,69.62
2018-12-18T09:00:46.904Z,75.38
2018-12-18T09:03:15.961Z,66.87
2018-12-18T09:05:45.020Z,63.87
2018-12-18T09:08:14.072Z,57.35
2018-12-18T09:10:43.122Z,63.64
2018-12-18T09:15:53.587Z,52.22
2018-12-18T09:20:58.416Z,60.16
2018-12-18T09:23:27.521Z,49.34
2018-12-18T09:25:56.567Z,57.24
2018-12-18T09:28:25.632Z,48.24
2018-12-18T09:33:30.542Z,42.71
2018-12-18T09:35:59.595Z,41.23
2018-12-18T09:38:34.126Z,38.54
2018-12-18T09:41:09.835Z,44.42
2018-12-18T09:46:37.635Z,46.33
2018-12-18T09:49:06.798Z,46.68
2018-12-18T09:51:35.831Z,32.46
2018-12-18T09:54:04.976Z,35.26
2018-12-18T09:56:33.951Z,46.75
2018-12-18T09:59:03.008Z,39.31
2018-12-18T10:04:19.946Z,37.91
2018-12-18T10:06:48.982Z,35.74
2018-12-18T10:09:18.117Z,31.31
2018-12-18T10:11:47.224Z,30.86
2018-12-18T10:14:16.295Z,32.89
2018-12-18T10:19:21.164Z,35.67
2018-12-18T10:21:50.372Z,35.10
2018-12-18T10:24:19.408Z,33.99
2018-12-18T10:26:48.499Z,37.54
2018-12-18T10:31:53.386Z,35.18
2018-12-18T10:34:22.439Z,37.18
2018-12-18T10:39:30.391Z,28.76
2018-12-18T10:41:59.484Z,28.43
2018-12-18T10:44:28.555Z,34.71
2018-12-18T10:46:57.610Z,27.85
2018-12-18T10:52:02.448Z,26.44
2018-12-18T10:54:31.495Z,33.38
2018-12-18T10:59:36.390Z,39.75
2018-12-18T11:02:05.463Z,32.93
2018-12-18T11:04:34.511Z,37.18
2018-12-18T11:09:43.457Z,37.01
2018-12-18T11:17:25.689Z,34.21
2018-12-18T11:19:54.752Z,39.54
2018-12-18T11:22:23.803Z,38.93
2018-12-18T11:27:28.635Z,38.64
2018-12-18T11:29:57.677Z,40.88
2018-12-18T11:32:33.004Z,43.27
2018-12-18T11:34:55.801Z,40.45
2018-12-18T11:40:00.673Z,35.55
2018-12-18T11:42:29.746Z,36.82
2018-12-18T11:44:58.923Z,39.56
2018-12-18T11:47:27.987Z,41.41
2018-12-18T11:49:57.034Z,39.89
2018-12-18T11:52:26.130Z,44.23
2018-12-18T11:54:56.872Z,46.44
2018-12-18T11:57:28.734Z,46.90
2018-12-18T11:59:57.942Z,47.98
2018-12-18T12:05:05.744Z,49.74
2018-12-18T12:07:34.764Z,50.64
2018-12-18T12:12:39.537Z,50.42
2018-12-18T12:15:08.581Z,50.61
2018-12-18T12:17:37.615Z,55.34
2018-12-18T12:20:06.670Z,55.66
2018-12-18T12:22:35.754Z,55.14
2018-12-18T12:25:04.815Z,50.56
2018-12-18T12:27:33.907Z,47.86
2018-12-18T12:30:02.966Z,47.11
2018-12-18T12:32:32.002Z,50.11
2018-12-18T12:37:36.778Z,54.42
2018-12-18T12:40:05.857Z,54.96
2018-12-18T12:42:34.881Z,51.30
2018-12-18T12:45:07.418Z,53.43
2018-12-18T12:47:38.378Z,53.81
2018-12-18T12:50:07.422Z,54.22
2018-12-18T12:52:37.404Z,53.28
2018-12-18T12:55:06.470Z,50.26
2018-12-18T12:57:35.561Z,50.53
2018-12-18T13:00:04.833Z,51.48
2018-12-18T13:02:33.867Z,50.31
2018-12-18T13:05:02.925Z,50.19
2018-12-18T13:07:31.964Z,52.38
2018-12-18T13:10:01.041Z,52.68
2018-12-18T13:15:05.846Z,51.38
2018-12-18T13:17:34.907Z,50.78
2018-12-18T13:20:03.958Z,50.88
2018-12-18T13:22:32.977Z,48.01
2018-12-18T13:25:02.051Z,48.13
2018-12-18T13:27:31.141Z,48.00
2018-12-18T13:32:35.905Z,44.30
2018-12-18T13:35:04.982Z,48.59
2018-12-18T13:37:34.023Z,50.43
2018-12-18T13:40:03.070Z,49.74
2018-12-18T13:42:32.110Z,54.27
2018-12-18T13:45:01.324Z,54.04
2018-12-18T13:52:42.136Z,58.89
2018-12-18T13:55:11.179Z,59.98
2018-12-18T13:57:40.236Z,59.63
2018-12-18T14:02:45.054Z,59.67
2018-12-18T14:05:14.092Z,59.68
2018-12-18T14:07:43.136Z,60.68
2018-12-18T14:10:12.191Z,61.70
2018-12-18T14:15:17.982Z,65.03
2018-12-18T14:17:47.039Z,65.99
2018-12-18T14:20:16.085Z,66.29
2018-12-18T14:22:45.126Z,66.81
2018-12-18T14:25:14.190Z,67.32
2018-12-18T14:27:43.256Z,68.81
2018-12-18T14:32:48.998Z,69.84
2018-12-18T14:35:18.066Z,71.00
2018-12-18T14:37:47.127Z,71.23
2018-12-18T14:40:16.163Z,71.95
2018-12-18T14:42:45.239Z,73.19
2018-12-18T14:45:14.299Z,73.85
2018-12-18T14:47:43.358Z,73.99
2018-12-18T14:50:12.398Z,75.26
2018-12-18T14:52:41.445Z,75.96
2018-12-18T14:55:14.362Z,76.52
2018-12-18T14:57:57.234Z,77.27
2018-12-18T15:00:26.252Z,77.24
2018-12-18T15:02:55.284Z,77.01
2018-12-18T15:08:00.047Z,78.14
2018-12-18T15:10:29.102Z,79.73
2018-12-18T15:12:58.138Z,82.68
2018-12-18T15:15:27.239Z,81.28
2018-12-18T15:17:56.291Z,83.46
2018-12-18T15:20:26.323Z,83.80
2018-12-18T15:22:55.367Z,84.37
2018-12-18T15:25:24.432Z,85.18
2018-12-18T15:27:53.507Z,83.09
2018-12-18T15:30:25.907Z,87.21
2018-12-18T15:32:51.678Z,85.81
2018-12-18T15:35:21.652Z,87.56
2018-12-18T15:37:50.677Z,88.45
2018-12-18T15:43:00.320Z,87.13
2018-12-18T15:45:29.341Z,88.81
2018-12-18T15:47:59.142Z,90.59
2018-12-18T15:50:27.418Z,91.16
2018-12-18T15:55:32.507Z,93.76
2018-12-18T15:58:03.566Z,95.24
2018-12-18T16:03:11.387Z,95.15
2018-12-18T16:05:42.050Z,95.54
2018-12-18T16:08:11.347Z,95.53
2018-12-18T16:10:40.389Z,95.42
2018-12-18T16:13:09.475Z,96.05
2018-12-18T16:15:40.494Z,95.84
2018-12-18T16:18:10.495Z,96.83
2018-12-18T16:20:39.539Z,95.05
2018-12-18T16:23:08.575Z,97.21
2018-12-18T16:25:37.611Z,97.99
2018-12-18T16:28:07.602Z,99.01
2018-12-18T16:33:13.846Z,97.72
2018-12-18T16:35:46.099Z,97.45
2018-12-18T16:38:11.971Z,97.85
2018-12-18T16:40:41.056Z,99.36
2018-12-18T16:43:10.094Z,99.03
2018-12-18T16:45:39.198Z,99.66
2018-12-18T16:48:10.166Z,100.00
2018-12-18T16:50:39.229Z,100.00
2018-12-18T16:53:08.267Z,100.00
2018-12-18T16:55:37.321Z,100.00
2018-12-18T16:58:07.372Z,100.00
2018-12-18T17:00:36.429Z,100.00
2018-12-18T17:03:06.367Z,100.00
2018-12-18T17:08:11.513Z,100.00
2018-12-18T17:10:40.669Z,100.00
2018-12-18T17:13:09.737Z,100.00
2018-12-18T17:15:38.807Z,100.00
2018-12-18T17:18:14.317Z,100.00
2018-12-18T17:20:43.368Z,100.00
2018-12-18T17:23:12.439Z,100.00
2018-12-18T17:25:41.500Z,100.00
2018-12-18T17:28:11.447Z,100.00
2018-12-18T17:30:40.544Z,100.00
2018-12-18T17:33:09.600Z,100.00
2018-12-18T17:35:38.637Z,100.00
2018-12-18T17:38:07.680Z,100.00
2018-12-18T17:43:12.472Z,100.00
2018-12-18T17:45:41.631Z,100.00
2018-12-18T17:48:11.674Z,100.00
2018-12-18T17:50:40.748Z,100.00
2018-12-18T17:53:09.766Z,100.00
2018-12-18T17:55:38.835Z,100.00
2018-12-18T17:58:07.975Z,100.00
2018-12-18T18:00:37.096Z,100.00
2018-12-18T18:03:07.470Z,100.00
2018-12-18T18:05:37.663Z,100.00
2018-12-18T18:08:08.213Z,100.00
2018-12-18T18:15:51.166Z,100.00
2018-12-18T18:18:20.223Z,100.00
2018-12-18T18:20:49.392Z,100.00
2018-12-18T18:23:18.480Z,100.00
2018-12-18T18:25:47.557Z,100.00
2018-12-18T18:28:17.717Z,100.00
2018-12-18T18:33:25.715Z,100.00
2018-12-18T18:35:54.787Z,100.00
2018-12-18T18:38:24.518Z,100.00
2018-12-18T18:40:53.581Z,100.00
2018-12-18T18:43:22.640Z,100.00
2018-12-18T18:45:51.713Z,100.00
2018-12-18T18:48:20.749Z,100.00
2018-12-18T18:50:49.811Z,100.00
2018-12-18T18:53:18.858Z,100.00
2018-12-18T18:55:48.900Z,100.00
2018-12-18T18:58:17.950Z,100.00
2018-12-18T19:00:47.020Z,100.00
2018-12-18T19:03:16.110Z,100.00
2018-12-18T19:05:45.159Z,100.00
2018-12-18T19:08:15.212Z,100.00
2018-12-18T19:10:44.263Z,100.00
2018-12-18T19:13:21.026Z,100.00
2018-12-18T19:15:50.056Z,100.00
2018-12-18T19:18:19.127Z,100.00
2018-12-18T19:20:48.170Z,100.00
2018-12-18T19:23:18.231Z,100.00
2018-12-18T19:25:47.340Z,100.00
2018-12-18T19:28:17.330Z,100.00
2018-12-18T19:30:46.383Z,100.00
2018-12-18T19:33:15.437Z,100.00
2018-12-18T19:35:45.436Z,100.00
2018-12-18T19:38:14.498Z,100.00
2018-12-18T19:40:43.551Z,100.00
2018-12-18T19:45:48.403Z,100.00
2018-12-18T19:48:17.462Z,100.00
2018-12-18T19:50:46.535Z,100.00
2018-12-18T19:53:15.623Z,100.00
2018-12-18T19:55:45.651Z,100.00
2018-12-18T19:58:14.660Z,100.00
2018-12-18T20:00:44.735Z,100.00
2018-12-18T20:03:13.807Z,100.00
2018-12-18T20:05:42.873Z,100.00
2018-12-18T20:08:12.847Z,100.00
2018-12-18T20:10:41.919Z,100.00
2018-12-18T20:13:11.074Z,100.00
2018-12-18T20:15:40.159Z,100.00
2018-12-18T20:18:09.207Z,100.00
2018-12-18T20:20:39.250Z,100.00
2018-12-18T20:23:08.320Z,100.00
2018-12-18T20:25:37.346Z,100.00
2018-12-18T20:28:06.423Z,100.00
2018-12-18T20:30:35.449Z,100.00
2018-12-18T20:33:04.499Z,100.00
2018-12-18T20:35:33.560Z,100.00
2018-12-18T20:38:02.621Z,100.00
2018-12-18T20:40:32.666Z,100.00
2018-12-18T20:43:07.001Z,100.00
2018-12-18T20:45:36.039Z,100.00
2018-12-18T20:48:05.108Z,100.00
2018-12-18T20:50:34.217Z,100.00
2018-12-18T20:53:03.323Z,100.00
2018-12-18T20:55:32.412Z,100.00
2018-12-18T20:58:01.491Z,100.00
2018-12-18T21:00:30.554Z,100.00
2018-12-18T21:02:59.607Z,100.00
2018-12-18T21:05:30.680Z,100.00
2018-12-18T21:08:00.616Z,100.00
2018-12-18T21:10:29.685Z,100.00
2018-12-18T21:13:05.257Z,100.00
2018-12-18T21:15:35.314Z,100.00
2018-12-18T21:18:04.487Z,100.00
2018-12-18T21:20:33.537Z,100.00
2018-12-18T21:23:03.544Z,100.00
2018-12-18T21:25:39.328Z,100.00
2018-12-18T21:28:10.289Z,100.00
2018-12-18T21:30:39.362Z,100.00
2018-12-18T21:33:08.423Z,100.00
2018-12-18T21:35:37.495Z,100.00
2018-12-18T21:38:07.197Z,100.00
2018-12-18T21:40:36.270Z,100.00
2018-12-18T21:43:08.529Z,100.00
2018-12-18T21:45:38.561Z,100.00
2018-12-18T21:48:12.235Z,100.00
2018-12-18T21:50:41.442Z,100.00
2018-12-18T21:53:10.492Z,100.00
2018-12-18T21:55:39.567Z,100.00
2018-12-18T21:58:08.629Z,100.00
2018-12-18T22:00:37.703Z,100.00
2018-12-18T22:03:06.794Z,100.00
2018-12-18T22:05:35.876Z,100.00
2018-12-18T22:08:05.115Z,100.00
2018-12-18T22:10:34.161Z,100.00
2018-12-18T22:13:03.222Z,100.00
2018-12-18T22:15:33.284Z,100.00
2018-12-18T22:18:02.351Z,100.00
2018-12-18T22:20:31.497Z,100.00
2018-12-18T22:23:00.540Z,100.00
2018-12-18T22:25:29.670Z,100.00
2018-12-18T22:27:58.813Z,100.00
2018-12-18T22:30:27.915Z,100.00
2018-12-18T22:32:57.074Z,100.00
2018-12-18T22:35:26.181Z,100.00
2018-12-18T22:37:55.311Z,100.00
2018-12-18T22:40:24.579Z,100.00
2018-12-18T22:42:53.670Z,100.00
2018-12-18T22:45:22.743Z,100.00
2018-12-18T22:47:52.002Z,100.00
2018-12-18T22:50:21.216Z,100.00
2018-12-18T22:52:50.317Z,100.00
2018-12-18T22:55:19.391Z,100.00
2018-12-18T22:57:48.576Z,100.00
2018-12-18T23:00:24.120Z,100.00
2018-12-18T23:02:53.232Z,100.00
2018-12-18T23:05:23.239Z,100.00
2018-12-18T23:07:52.365Z,100.00
2018-12-18T23:10:21.442Z,100.00
2018-12-18T23:12:50.531Z,100.00
2018-12-18T23:15:19.599Z,100.00
2018-12-18T23:17:48.734Z,100.00
2018-12-18T23:20:17.834Z,100.00
2018-12-18T23:22:48.426Z,100.00
2018-12-18T23:25:17.515Z,100.00
2018-12-18T23:27:47.373Z,100.00
2018-12-18T23:30:16.419Z,100.00
2018-12-18T23:32:47.097Z,100.00
2018-12-18T23:35:17.149Z,100.00
2018-12-18T23:37:46.361Z,100.00
2018-12-18T23:40:15.487Z,100.00
2018-12-18T23:42:44.732Z,100.00
2018-12-18T23:45:14.696Z,100.00
2018-12-18T23:47:43.772Z,100.00
2018-12-18T23:50:13.355Z,100.00
2018-12-18T23:52:42.417Z,100.00
2018-12-18T23:55:11.488Z,100.00
2018-12-18T23:57:40.560Z,100.00
